createdAt,value
2022-12-12T00:01:20.130Z,1412
2022-12-12T00:06:43.941Z,1410
2022-12-12T00:12:02.479Z,1449
2022-12-12T00:17:20.393Z,1478
2022-12-12T00:22:39.169Z,1501
2022-12-12T00:28:03.918Z,1530
2022-12-12T00:33:22.466Z,1555
2022-12-12T00:38:40.934Z,1569
2022-12-12T00:43:59.410Z,1565
2022-12-12T00:49:17.935Z,1567
2022-12-12T00:54:36.443Z,1577
2022-12-12T00:59:54.895Z,1591
2022-12-12T01:05:13.421Z,1587
2022-12-12T01:10:33.214Z,1604
2022-12-12T01:15:51.700Z,1612
2022-12-12T01:21:09.822Z,1621
2022-12-12T01:26:28.290Z,1619
2022-12-12T01:31:46.840Z,1613
2022-12-12T01:37:05.328Z,1605
2022-12-12T01:42:23.513Z,1591
2022-12-12T01:47:42.008Z,1590
2022-12-12T01:53:00.221Z,1606
2022-12-12T01:58:18.976Z,1597
2022-12-12T02:03:37.719Z,1597
2022-12-12T02:08:56.528Z,1595
2022-12-12T02:14:14.719Z,1607
2022-12-12T02:19:33.513Z,1609
2022-12-12T02:24:51.501Z,1604
2022-12-12T02:30:10.360Z,1606
2022-12-12T02:35:29.153Z,1602
2022-12-12T02:40:47.370Z,1604
2022-12-12T02:46:05.838Z,1615
2022-12-12T02:51:24.337Z,1608
2022-12-12T02:56:42.875Z,1627
2022-12-12T03:02:00.849Z,1624
2022-12-12T03:07:19.264Z,1621
2022-12-12T03:12:37.227Z,1617
2022-12-12T03:17:55.701Z,1617
2022-12-12T03:23:14.451Z,1610
2022-12-12T03:28:32.696Z,1611
2022-12-12T03:33:51.172Z,1630
2022-12-12T03:39:09.373Z,1626
2022-12-12T03:44:27.922Z,1622
2022-12-12T03:49:46.369Z,1617
2022-12-12T03:55:05.180Z,1616
2022-12-12T04:00:23.950Z,1619
2022-12-12T04:05:42.678Z,1613
2022-12-12T04:11:01.455Z,1612
2022-12-12T04:16:19.985Z,1603
2022-12-12T04:21:38.486Z,1613
2022-12-12T04:26:56.735Z,1621
2022-12-12T04:32:15.219Z,1607
2022-12-12T04:37:33.401Z,1639
2022-12-12T04:42:51.611Z,1632
2022-12-12T04:48:10.347Z,1600
2022-12-12T04:53:28.792Z,1550
2022-12-12T04:58:47.288Z,1518
2022-12-12T05:04:05.834Z,1508
2022-12-12T05:09:24.567Z,1505
2022-12-12T05:14:43.328Z,1500
2022-12-12T05:20:01.565Z,1498
2022-12-12T05:25:19.905Z,1505
2022-12-12T05:30:38.717Z,1486
2022-12-12T05:35:57.107Z,1499
2022-12-12T05:41:15.557Z,1516
2022-12-12T05:46:33.818Z,1520
2022-12-12T05:51:52.026Z,1504
2022-12-12T05:57:10.532Z,1504
2022-12-12T06:02:29.057Z,1428
2022-12-12T06:07:47.526Z,1438
2022-12-12T06:13:05.963Z,1426
2022-12-12T06:18:23.905Z,1415
2022-12-12T06:23:42.281Z,1398
2022-12-12T06:29:00.749Z,1380
2022-12-12T06:34:03.896Z,1363
2022-12-12T06:39:22.161Z,1352
2022-12-12T06:44:40.664Z,1344
2022-12-12T06:49:59.106Z,1334
2022-12-12T06:55:17.083Z,1323
2022-12-12T07:00:19.637Z,1303
2022-12-12T07:05:37.843Z,1299
2022-12-12T07:10:56.578Z,1309
2022-12-12T07:16:15.065Z,1329
2022-12-12T07:21:33.455Z,1319
2022-12-12T07:26:51.986Z,1311
2022-12-12T07:43:12.053Z,1292
2022-12-12T07:54:01.652Z,1287
2022-12-12T07:59:20.457Z,1275
2022-12-12T08:04:39.040Z,1266
2022-12-12T08:09:57.665Z,1257
2022-12-12T08:15:16.636Z,1253
2022-12-12T08:20:35.169Z,1247
2022-12-12T08:25:54.096Z,1241
2022-12-12T08:31:20.174Z,1234
2022-12-12T08:42:09.159Z,1220
2022-12-12T08:47:27.945Z,1212
2022-12-12T08:52:46.143Z,1207
2022-12-12T08:58:04.629Z,1198
2022-12-12T09:03:28.930Z,1196
2022-12-12T09:08:48.101Z,1181
2022-12-12T09:14:06.606Z,1173
2022-12-12T09:19:24.529Z,1165
2022-12-12T09:24:43.012Z,1156
2022-12-12T09:30:01.510Z,1154
2022-12-12T09:35:20.008Z,1146
2022-12-12T09:40:37.919Z,1135
2022-12-12T09:45:56.502Z,1133
2022-12-12T09:51:15.012Z,1118
2022-12-12T09:56:33.221Z,1106
2022-12-12T10:01:51.450Z,1107
2022-12-12T10:07:09.849Z,1099
2022-12-12T10:12:28.059Z,1093
2022-12-12T10:17:46.534Z,1085
2022-12-12T10:23:05.070Z,1076
2022-12-12T10:28:23.238Z,1071
2022-12-12T10:50:16.564Z,1047
2022-12-12T10:55:38.935Z,1048
2022-12-12T11:00:57.732Z,1048
2022-12-12T11:06:16.186Z,1050
2022-12-12T11:11:34.419Z,1043
2022-12-12T11:16:52.989Z,1039
2022-12-12T11:22:11.455Z,1033
2022-12-12T11:27:30.005Z,1027
2022-12-12T11:32:48.487Z,1022
2022-12-12T11:38:07.274Z,1026
2022-12-12T11:43:26.031Z,1019
2022-12-12T11:48:44.812Z,1018
2022-12-12T11:54:03.643Z,1025
2022-12-12T11:59:22.064Z,1026
2022-12-12T12:04:41.037Z,1027
2022-12-12T12:09:59.729Z,1028
2022-12-12T12:37:18.185Z,1016
2022-12-12T12:42:36.660Z,1014
2022-12-12T12:47:55.459Z,1007
2022-12-12T12:53:13.693Z,1004
2022-12-12T12:58:31.602Z,1003
2022-12-12T13:03:50.093Z,1005
2022-12-12T13:09:08.631Z,999
2022-12-12T13:14:29.913Z,996
2022-12-12T13:19:48.398Z,989
2022-12-12T13:25:06.908Z,986
2022-12-12T13:30:25.401Z,981
2022-12-12T13:35:43.587Z,977
2022-12-12T13:41:01.568Z,965
2022-12-12T13:46:19.873Z,968
2022-12-12T13:51:38.249Z,965
2022-12-12T13:56:56.522Z,961
2022-12-12T14:02:14.909Z,961
2022-12-12T14:07:33.067Z,956
2022-12-12T14:12:51.898Z,950
2022-12-12T14:18:10.408Z,954
2022-12-12T14:23:29.154Z,951
2022-12-12T14:28:47.510Z,950
2022-12-12T14:34:06.027Z,965
2022-12-12T14:39:24.774Z,981
2022-12-12T14:44:46.548Z,971
2022-12-12T14:50:09.428Z,963
2022-12-12T14:55:27.895Z,951
2022-12-12T15:00:46.421Z,948
2022-12-12T15:06:05.305Z,941
2022-12-12T15:11:23.510Z,939
2022-12-12T15:16:47.902Z,936
2022-12-12T15:22:07.440Z,928
2022-12-12T15:27:25.783Z,912
2022-12-12T15:32:44.449Z,901
2022-12-12T15:38:02.890Z,896
2022-12-12T15:43:20.817Z,899
2022-12-12T15:48:38.779Z,918
2022-12-12T15:53:57.250Z,908
2022-12-12T15:59:15.460Z,895
2022-12-12T16:04:33.974Z,881
2022-12-12T16:09:51.894Z,875
2022-12-12T16:15:10.064Z,912
2022-12-12T16:20:30.668Z,911
2022-12-12T16:25:49.418Z,906
2022-12-12T16:31:07.626Z,897
2022-12-12T16:36:26.269Z,883
2022-12-12T16:41:44.994Z,876
2022-12-12T16:47:03.709Z,871
2022-12-12T16:52:22.202Z,857
2022-12-12T16:57:40.417Z,852
2022-12-12T17:02:59.182Z,851
2022-12-12T17:08:17.443Z,853
2022-12-12T17:13:35.788Z,871
2022-12-12T17:18:54.277Z,823
2022-12-12T17:24:12.783Z,866
2022-12-12T17:29:31.146Z,903
2022-12-12T17:34:49.307Z,949
2022-12-12T17:40:07.858Z,946
2022-12-12T17:45:26.433Z,935
2022-12-12T17:50:44.519Z,931
2022-12-12T17:56:07.793Z,922
2022-12-12T18:01:27.001Z,890
2022-12-12T18:06:45.346Z,850
2022-12-12T18:12:04.133Z,825
2022-12-12T18:17:22.869Z,800
2022-12-12T18:22:41.049Z,787
2022-12-12T18:27:59.253Z,771
2022-12-12T18:33:18.059Z,760
2022-12-12T18:38:21.222Z,753
2022-12-12T18:43:39.480Z,750
2022-12-12T18:48:57.927Z,878
2022-12-12T18:54:16.395Z,829
2022-12-12T18:59:34.473Z,820
2022-12-12T19:04:52.955Z,835
2022-12-12T19:10:11.712Z,849
2022-12-12T19:15:31.146Z,858
2022-12-12T19:20:49.877Z,864
2022-12-12T19:26:08.107Z,874
2022-12-12T19:31:26.626Z,880
2022-12-12T19:36:29.177Z,884
2022-12-12T19:41:47.373Z,890
2022-12-12T19:47:05.923Z,898
2022-12-12T19:52:24.645Z,912
2022-12-12T19:57:43.138Z,921
2022-12-12T20:03:01.383Z,936
2022-12-12T20:08:19.889Z,947
2022-12-12T20:13:23.170Z,953
2022-12-12T20:18:41.412Z,964
2022-12-12T20:23:59.615Z,967
2022-12-12T20:29:17.793Z,987
2022-12-12T20:34:36.011Z,1003
2022-12-12T20:39:54.734Z,1031
2022-12-12T20:45:13.903Z,1089
2022-12-12T20:50:33.361Z,1121
2022-12-12T20:55:51.540Z,1122
2022-12-12T21:01:10.373Z,1137
2022-12-12T21:06:28.600Z,1141
2022-12-12T21:11:46.518Z,1151
2022-12-12T21:17:04.430Z,1142
2022-12-12T21:22:22.940Z,1183
2022-12-12T21:27:41.125Z,1238
2022-12-12T21:32:59.361Z,1335
2022-12-12T21:38:17.570Z,1332
2022-12-12T21:43:35.506Z,1312
2022-12-12T21:48:53.970Z,1309
2022-12-12T21:54:12.457Z,1315
2022-12-12T21:59:30.366Z,1314
2022-12-12T22:04:48.561Z,1312
2022-12-12T22:10:11.320Z,1314
2022-12-12T22:15:30.261Z,1316
2022-12-12T22:20:48.735Z,1315
2022-12-12T22:26:06.907Z,1333
2022-12-12T22:31:25.332Z,1339
2022-12-12T22:36:43.600Z,1356
2022-12-12T22:42:02.106Z,1363
2022-12-12T22:47:20.280Z,1362
2022-12-12T22:52:38.514Z,1355
2022-12-12T22:57:56.736Z,1360
2022-12-12T23:03:14.654Z,1365
2022-12-12T23:08:33.158Z,1345
2022-12-12T23:13:51.274Z,1355
2022-12-12T23:19:09.880Z,1349
2022-12-12T23:24:28.107Z,1339
2022-12-12T23:29:46.885Z,1329
2022-12-12T23:35:05.075Z,1323
2022-12-12T23:40:23.587Z,1323
2022-12-12T23:45:41.846Z,1324
2022-12-12T23:51:00.376Z,1324
2022-12-12T23:56:19.146Z,1314
